createdAt,value
2023-02-11T00:01:33.695Z,17.40
2023-02-11T00:04:07.852Z,18.23
2023-02-11T00:06:39.295Z,13.40
2023-02-11T00:09:11.604Z,14.63
2023-02-11T00:11:43.135Z,15.48
2023-02-11T00:14:14.726Z,13.35
2023-02-11T00:16:46.389Z,14.38
2023-02-11T00:19:17.989Z,14.80
2023-02-11T00:21:49.555Z,15.13
2023-02-11T00:24:20.957Z,13.35
2023-02-11T00:26:53.051Z,12.93
2023-02-11T00:29:24.621Z,13.78
2023-02-11T00:31:56.283Z,15.03
2023-02-11T00:34:27.818Z,12.82
2023-02-11T00:36:59.276Z,12.53
2023-02-11T00:39:31.510Z,10.65
2023-02-11T00:42:02.967Z,13.53
2023-02-11T00:44:34.448Z,12.30
2023-02-11T00:47:06.226Z,11.35
2023-02-11T00:49:39.624Z,11.10
2023-02-11T00:52:11.183Z,10.20
2023-02-11T00:54:42.557Z,10.50
2023-02-11T00:57:14.121Z,10.08
2023-02-11T00:59:45.566Z,12.98
2023-02-11T01:02:17.169Z,12.28
2023-02-11T01:04:48.903Z,10.58
2023-02-11T01:07:20.500Z,14.33
2023-02-11T01:09:51.941Z,11.18
2023-02-11T01:12:24.176Z,13.25
2023-02-11T01:14:55.559Z,13.68
2023-02-11T01:17:27.002Z,12.58
2023-02-11T01:19:58.451Z,11.40
2023-02-11T01:22:30.005Z,11.30
2023-02-11T01:25:01.933Z,10.80
2023-02-11T01:27:34.107Z,10.10
2023-02-11T01:30:07.815Z,11.15
2023-02-11T01:32:39.433Z,11.90
2023-02-11T01:35:11.254Z,11.93
2023-02-11T01:37:42.882Z,12.43
2023-02-11T01:40:18.105Z,11.78
2023-02-11T01:42:51.107Z,12.58
2023-02-11T01:45:59.169Z,11.83
2023-02-11T01:48:34.299Z,11.65
2023-02-11T01:51:09.385Z,13.70
2023-02-11T01:53:59.794Z,11.88
2023-02-11T01:56:52.209Z,12.10
2023-02-11T01:59:26.646Z,11.48
2023-02-11T02:02:02.745Z,11.53
2023-02-11T02:04:37.847Z,13.88
2023-02-11T02:07:12.411Z,10.80
2023-02-11T02:09:47.433Z,15.83
2023-02-11T02:12:18.901Z,13.10
2023-02-11T02:14:50.341Z,11.22
2023-02-11T02:17:28.222Z,11.80
2023-02-11T02:23:38.933Z,9.73
2023-02-11T02:26:42.407Z,12.13
2023-02-11T02:29:36.185Z,10.10
2023-02-11T02:32:29.882Z,12.10
2023-02-11T02:35:05.304Z,10.23
2023-02-11T02:37:39.575Z,12.15
2023-02-11T02:40:14.916Z,12.28
2023-02-11T02:42:47.799Z,10.30
2023-02-11T02:45:19.860Z,11.70
2023-02-11T02:47:51.354Z,11.75
2023-02-11T02:50:27.715Z,12.68
2023-02-11T02:53:04.578Z,10.38
2023-02-11T02:56:11.933Z,11.55
2023-02-11T02:59:02.414Z,11.15
2023-02-11T03:01:38.298Z,12.10
2023-02-11T03:04:14.510Z,11.70
2023-02-11T03:06:52.383Z,12.37
2023-02-11T03:09:27.207Z,10.72
2023-02-11T03:11:58.676Z,11.68
2023-02-11T03:14:31.717Z,12.88
2023-02-11T03:17:06.228Z,10.63
2023-02-11T03:19:40.616Z,11.15
2023-02-11T03:22:15.547Z,10.80
2023-02-11T03:24:48.103Z,9.90
2023-02-11T03:27:23.443Z,9.53
2023-02-11T03:29:57.766Z,9.95
2023-02-11T03:32:32.797Z,8.43
2023-02-11T03:35:07.323Z,7.47
2023-02-11T03:37:41.897Z,8.85
2023-02-11T03:40:16.572Z,6.47
2023-02-11T03:42:51.403Z,9.15
2023-02-11T03:45:25.825Z,9.68
2023-02-11T03:48:00.233Z,9.70
2023-02-11T03:50:34.517Z,8.88
2023-02-11T03:53:07.094Z,9.13
2023-02-11T03:55:41.017Z,8.33
2023-02-11T03:58:13.004Z,8.23
2023-02-11T04:00:46.425Z,8.30
2023-02-11T04:03:19.126Z,9.73
2023-02-11T04:05:50.823Z,7.97
2023-02-11T04:08:22.595Z,8.95
2023-02-11T04:10:54.080Z,7.33
2023-02-11T04:13:25.553Z,7.97
2023-02-11T04:15:57.188Z,8.85
2023-02-11T04:18:28.653Z,8.25
2023-02-11T04:21:00.103Z,7.40
2023-02-11T04:23:31.545Z,7.62
2023-02-11T04:26:02.941Z,7.72
2023-02-11T04:28:35.103Z,9.30
2023-02-11T04:31:07.075Z,7.67
2023-02-11T04:33:38.850Z,8.73
2023-02-11T04:36:10.865Z,8.63
2023-02-11T04:38:42.558Z,7.95
2023-02-11T04:41:14.072Z,9.58
2023-02-11T04:43:45.615Z,9.80
2023-02-11T04:46:17.217Z,9.03
2023-02-11T04:48:48.714Z,7.33
2023-02-11T04:51:20.163Z,8.85
2023-02-11T04:53:51.559Z,8.30
2023-02-11T04:56:23.067Z,7.65
2023-02-11T04:58:54.560Z,6.90
2023-02-11T05:01:26.398Z,7.42
2023-02-11T05:03:58.812Z,7.15
2023-02-11T05:06:30.534Z,6.28
2023-02-11T05:09:02.011Z,6.80
2023-02-11T05:11:33.571Z,7.00
2023-02-11T05:14:04.914Z,6.25
2023-02-11T05:16:36.755Z,6.25
2023-02-11T05:19:08.168Z,8.13
2023-02-11T05:21:41.059Z,5.45
2023-02-11T05:24:12.617Z,6.20
2023-02-11T05:26:44.154Z,6.62
2023-02-11T05:29:15.629Z,5.42
2023-02-11T05:31:47.244Z,6.65
2023-02-11T05:34:18.792Z,7.25
2023-02-11T05:36:50.215Z,5.97
2023-02-11T05:39:21.570Z,7.15
2023-02-11T05:41:53.076Z,5.53
2023-02-11T05:44:24.490Z,6.70
2023-02-11T05:46:56.067Z,6.62
2023-02-11T05:49:27.528Z,6.92
2023-02-11T05:51:59.063Z,5.92
2023-02-11T05:54:30.706Z,7.00
2023-02-11T05:57:02.188Z,6.28
2023-02-11T05:59:33.705Z,7.67
2023-02-11T06:02:05.142Z,6.58
2023-02-11T06:04:37.021Z,6.75
2023-02-11T06:07:08.573Z,7.67
2023-02-11T06:09:39.921Z,7.50
2023-02-11T06:12:11.470Z,7.83
2023-02-11T06:14:43.165Z,8.23
2023-02-11T06:17:15.707Z,7.40
2023-02-11T06:19:47.555Z,6.95
2023-02-11T06:22:19.041Z,8.63
2023-02-11T06:29:33.793Z,6.42
2023-02-11T06:32:05.551Z,5.97
2023-02-11T06:34:41.146Z,6.85
2023-02-11T06:37:12.814Z,7.28
2023-02-11T06:39:47.704Z,7.55
2023-02-11T06:42:34.638Z,7.12
2023-02-11T06:44:58.464Z,7.45
2023-02-11T06:47:30.049Z,7.50
2023-02-11T06:50:02.443Z,7.03
2023-02-11T06:52:34.979Z,6.97
2023-02-11T06:55:08.459Z,7.25
2023-02-11T06:57:39.970Z,7.65
2023-02-11T07:00:14.110Z,7.97
2023-02-11T07:02:45.674Z,6.67
2023-02-11T07:05:17.467Z,8.58
2023-02-11T07:07:49.473Z,7.45
2023-02-11T07:10:21.089Z,7.10
2023-02-11T07:12:52.521Z,7.78
2023-02-11T07:15:23.955Z,7.70
2023-02-11T07:17:55.637Z,7.45
2023-02-11T07:20:27.619Z,6.85
2023-02-11T07:23:00.134Z,8.95
2023-02-11T07:25:31.598Z,10.50
2023-02-11T07:28:02.966Z,13.75
2023-02-11T07:30:34.497Z,10.50
2023-02-11T07:33:06.110Z,13.62
2023-02-11T07:35:37.616Z,11.35
2023-02-11T07:38:08.981Z,10.08
2023-02-11T07:40:40.445Z,9.10
2023-02-11T07:43:11.948Z,11.15
2023-02-11T07:45:43.531Z,9.88
2023-02-11T07:48:15.136Z,7.10
2023-02-11T07:51:11.233Z,9.15
2023-02-11T07:53:42.702Z,14.07
2023-02-11T07:56:15.666Z,10.23
2023-02-11T07:58:47.613Z,8.88
2023-02-11T08:01:22.790Z,8.98
2023-02-11T08:03:54.487Z,8.40
2023-02-11T08:06:29.036Z,7.03
2023-02-11T08:09:03.838Z,6.75
2023-02-11T08:11:35.294Z,6.25
2023-02-11T08:14:06.659Z,7.10
2023-02-11T08:16:39.913Z,8.85
2023-02-11T08:19:14.758Z,7.87
2023-02-11T08:21:47.141Z,8.25
2023-02-11T08:24:18.781Z,8.20
2023-02-11T08:26:50.521Z,9.00
2023-02-11T08:29:21.898Z,8.48
2023-02-11T08:31:53.529Z,7.08
2023-02-11T08:34:24.960Z,7.37
2023-02-11T08:36:56.549Z,6.45
2023-02-11T08:39:27.961Z,7.37
2023-02-11T08:41:59.721Z,6.45
2023-02-11T08:44:31.129Z,6.42
2023-02-11T08:47:02.591Z,7.60
2023-02-11T08:49:34.147Z,7.60
2023-02-11T08:52:05.932Z,7.85
2023-02-11T08:54:38.259Z,8.08
2023-02-11T08:57:09.684Z,7.85
2023-02-11T08:59:41.090Z,7.28
2023-02-11T09:02:14.833Z,6.30
2023-02-11T09:04:46.335Z,10.00
2023-02-11T09:07:17.798Z,6.50
2023-02-11T09:09:49.242Z,8.13
2023-02-11T09:12:20.747Z,7.05
2023-02-11T09:14:52.290Z,6.95
2023-02-11T09:17:24.192Z,6.47
2023-02-11T09:19:55.680Z,7.55
2023-02-11T09:22:27.156Z,4.78
2023-02-11T09:24:58.845Z,4.20
2023-02-11T09:27:30.551Z,5.72
2023-02-11T09:30:02.012Z,6.97
2023-02-11T09:32:33.395Z,7.58
2023-02-11T09:35:05.245Z,6.08
2023-02-11T09:37:37.517Z,5.30
2023-02-11T09:40:11.698Z,7.08
2023-02-11T09:42:49.553Z,4.60
2023-02-11T09:45:24.778Z,4.92
2023-02-11T09:48:00.166Z,4.53
2023-02-11T09:50:34.828Z,6.12
2023-02-11T09:53:09.038Z,6.33
2023-02-11T09:55:44.483Z,5.53
2023-02-11T09:58:18.294Z,6.40
2023-02-11T10:00:53.100Z,4.60
2023-02-11T10:03:34.455Z,3.45
2023-02-11T10:06:32.436Z,4.75
2023-02-11T10:09:09.294Z,4.58
2023-02-11T10:11:44.611Z,6.20
2023-02-11T10:14:24.860Z,6.60
2023-02-11T10:17:02.206Z,6.50
2023-02-11T10:19:41.734Z,4.95
2023-02-11T10:22:16.789Z,6.15
2023-02-11T10:24:53.918Z,5.08
2023-02-11T10:27:28.871Z,4.83
2023-02-11T10:30:03.251Z,5.83
2023-02-11T10:32:38.581Z,5.08
2023-02-11T10:35:18.195Z,3.20
2023-02-11T10:37:50.244Z,4.00
2023-02-11T10:40:24.150Z,4.97
2023-02-11T10:42:59.406Z,4.30
2023-02-11T10:45:33.884Z,4.03
2023-02-11T10:48:08.646Z,3.95
2023-02-11T10:50:40.034Z,4.25
2023-02-11T10:53:21.415Z,4.72
2023-02-11T10:55:55.306Z,4.33
2023-02-11T10:58:29.827Z,4.28
2023-02-11T11:01:04.956Z,3.92
2023-02-11T11:03:38.992Z,4.00
2023-02-11T11:06:11.515Z,3.83
2023-02-11T11:08:45.171Z,4.08
2023-02-11T11:11:19.382Z,4.60
2023-02-11T11:13:58.968Z,3.45
2023-02-11T11:16:32.283Z,4.17
2023-02-11T11:19:21.639Z,3.92
2023-02-11T11:21:54.686Z,4.85
2023-02-11T11:24:29.344Z,4.22
2023-02-11T11:27:02.888Z,5.45
2023-02-11T11:29:37.877Z,3.70
2023-02-11T11:32:15.242Z,4.45
2023-02-11T11:34:51.285Z,4.30
2023-02-11T11:37:26.457Z,3.75
2023-02-11T11:40:01.588Z,4.20
2023-02-11T11:42:34.921Z,4.45
2023-02-11T11:45:11.205Z,5.00
2023-02-11T11:47:45.723Z,3.70
2023-02-11T11:50:28.941Z,4.60
2023-02-11T11:53:04.984Z,4.00
2023-02-11T11:55:42.275Z,3.83
2023-02-11T11:58:17.635Z,4.47
2023-02-11T12:00:57.706Z,4.62
2023-02-11T12:03:47.270Z,4.70
2023-02-11T12:06:28.816Z,4.05
2023-02-11T12:09:05.777Z,3.98
2023-02-11T12:11:41.650Z,5.10
2023-02-11T12:14:18.979Z,4.42
2023-02-11T12:16:56.370Z,5.50
2023-02-11T12:19:46.637Z,5.17
2023-02-11T12:22:25.944Z,4.53
2023-02-11T12:25:10.806Z,4.75
2023-02-11T12:27:50.881Z,7.33
2023-02-11T12:30:32.023Z,4.58
2023-02-11T12:33:06.482Z,5.37
2023-02-11T12:35:44.467Z,4.97
2023-02-11T12:38:35.490Z,5.20
2023-02-11T12:41:19.146Z,4.90
2023-02-11T12:43:50.693Z,4.80
2023-02-11T12:46:44.285Z,5.62
2023-02-11T12:49:33.594Z,5.40
2023-02-11T12:52:15.874Z,5.20
2023-02-11T12:54:50.805Z,5.20
2023-02-11T12:57:26.724Z,5.37
2023-02-11T13:00:01.863Z,5.28
2023-02-11T13:02:38.532Z,5.78
2023-02-11T13:05:16.550Z,5.50
2023-02-11T13:07:50.086Z,5.67
2023-02-11T13:10:31.164Z,6.03
2023-02-11T13:13:17.380Z,5.90
2023-02-11T13:15:53.429Z,6.53
2023-02-11T13:18:38.655Z,7.67
2023-02-11T13:24:33.104Z,6.47
2023-02-11T13:27:11.456Z,6.42
2023-02-11T13:29:53.488Z,6.08
2023-02-11T13:32:25.230Z,6.22
2023-02-11T13:34:59.573Z,6.47
2023-02-11T13:37:34.642Z,5.65
2023-02-11T13:40:10.359Z,6.28
2023-02-11T13:42:50.985Z,5.95
2023-02-11T13:45:31.035Z,5.65
2023-02-11T13:48:04.842Z,6.40
2023-02-11T13:50:39.868Z,7.12
2023-02-11T13:53:11.394Z,6.12
2023-02-11T13:55:46.153Z,8.40
2023-02-11T13:58:21.671Z,6.03
2023-02-11T14:00:54.639Z,8.18
2023-02-11T14:03:50.915Z,7.42
2023-02-11T14:06:46.465Z,9.15
2023-02-11T14:09:39.194Z,6.30
2023-02-11T14:12:33.399Z,6.70
2023-02-11T14:15:21.589Z,8.20
2023-02-11T14:17:53.175Z,6.97
2023-02-11T14:20:45.243Z,7.08
2023-02-11T14:23:28.410Z,6.85
2023-02-11T14:26:34.270Z,6.53
2023-02-11T14:29:10.191Z,6.78
2023-02-11T14:31:44.879Z,7.08
2023-02-11T14:34:33.140Z,7.70
2023-02-11T14:37:23.682Z,7.05
2023-02-11T14:40:05.963Z,8.45
2023-02-11T14:42:39.374Z,7.70
2023-02-11T14:45:16.538Z,7.22
2023-02-11T14:47:53.115Z,7.90
2023-02-11T14:50:27.572Z,8.58
2023-02-11T14:53:01.642Z,7.03
2023-02-11T14:55:35.794Z,8.83
2023-02-11T14:58:17.012Z,6.95
2023-02-11T15:00:55.578Z,7.20
2023-02-11T15:03:34.278Z,8.33
2023-02-11T15:06:09.554Z,7.25
2023-02-11T15:08:45.885Z,7.00
2023-02-11T15:11:20.330Z,6.67
2023-02-11T15:13:55.322Z,8.15
2023-02-11T15:16:28.998Z,8.28
2023-02-11T15:19:03.157Z,7.75
2023-02-11T15:21:37.173Z,7.28
2023-02-11T15:24:23.801Z,9.40
2023-02-11T15:27:02.983Z,8.05
2023-02-11T15:29:39.856Z,6.97
2023-02-11T15:32:17.053Z,7.53
2023-02-11T15:34:50.195Z,6.45
2023-02-11T15:37:24.422Z,7.75
2023-02-11T15:39:58.585Z,7.62
2023-02-11T15:42:38.099Z,6.92
2023-02-11T15:45:14.428Z,7.15
2023-02-11T15:47:50.090Z,8.38
2023-02-11T15:50:23.921Z,9.35
2023-02-11T15:52:57.525Z,7.92
2023-02-11T15:55:30.911Z,9.08
2023-02-11T15:58:03.922Z,8.45
2023-02-11T16:00:38.229Z,8.25
2023-02-11T16:03:19.294Z,7.10
2023-02-11T16:05:51.484Z,8.63
2023-02-11T16:08:25.053Z,9.25
2023-02-11T16:10:59.787Z,8.53
2023-02-11T16:13:34.466Z,8.03
2023-02-11T16:16:07.959Z,8.78
2023-02-11T16:18:43.723Z,8.75
2023-02-11T16:21:33.522Z,7.15
2023-02-11T16:24:07.847Z,8.08
2023-02-11T16:26:43.326Z,8.33
2023-02-11T16:29:17.244Z,9.45
2023-02-11T16:31:50.349Z,8.15
2023-02-11T16:34:23.721Z,8.23
2023-02-11T16:36:55.474Z,9.63
2023-02-11T16:39:26.846Z,8.75
2023-02-11T16:41:58.471Z,6.85
2023-02-11T16:44:30.845Z,10.98
2023-02-11T16:47:03.785Z,11.48
2023-02-11T16:49:38.341Z,10.00
2023-02-11T16:52:12.230Z,11.40
2023-02-11T16:54:43.879Z,9.13
2023-02-11T16:57:17.295Z,8.80
2023-02-11T16:59:48.979Z,10.82
2023-02-11T17:02:24.280Z,10.82
2023-02-11T17:04:56.787Z,10.50
2023-02-11T17:07:28.446Z,11.97
2023-02-11T17:10:00.711Z,11.78
2023-02-11T17:12:32.144Z,11.12
2023-02-11T17:15:05.457Z,12.20
2023-02-11T17:17:36.725Z,12.35
2023-02-11T17:20:11.404Z,10.75
2023-02-11T17:22:43.123Z,12.88
2023-02-11T17:25:15.104Z,11.43
2023-02-11T17:27:46.648Z,11.83
2023-02-11T17:30:18.790Z,13.83
2023-02-11T17:32:50.677Z,10.90
2023-02-11T17:35:22.305Z,11.60
2023-02-11T17:37:54.309Z,12.45
2023-02-11T17:40:26.449Z,16.20
2023-02-11T17:42:57.929Z,13.70
2023-02-11T17:45:29.381Z,15.28
2023-02-11T17:48:00.779Z,14.13
2023-02-11T17:50:32.293Z,13.93
2023-02-11T17:53:03.850Z,14.05
2023-02-11T17:55:35.683Z,15.25
2023-02-11T17:58:07.147Z,14.45
2023-02-11T18:00:38.590Z,13.93
2023-02-11T18:03:10.076Z,12.40
2023-02-11T18:05:41.530Z,13.95
2023-02-11T18:08:12.962Z,13.00
2023-02-11T18:10:44.514Z,12.03
2023-02-11T18:13:18.635Z,12.78
2023-02-11T18:15:50.425Z,11.43
2023-02-11T18:18:22.343Z,12.10
2023-02-11T18:20:59.511Z,12.03
2023-02-11T18:23:31.450Z,13.10
2023-02-11T18:26:03.480Z,13.53
2023-02-11T18:28:35.065Z,12.25
2023-02-11T18:31:07.928Z,12.25
2023-02-11T18:33:40.382Z,14.20
2023-02-11T18:36:14.614Z,15.03
2023-02-11T18:38:45.990Z,13.68
2023-02-11T18:41:17.614Z,13.48
2023-02-11T18:43:49.217Z,15.43
2023-02-11T18:46:21.353Z,12.75
2023-02-11T18:48:55.922Z,11.55
2023-02-11T18:51:27.064Z,11.55
2023-02-11T18:53:58.535Z,11.83
2023-02-11T18:56:30.093Z,11.57
2023-02-11T18:59:01.699Z,12.63
2023-02-11T19:01:35.731Z,13.45
2023-02-11T19:04:07.709Z,14.78
2023-02-11T19:06:39.892Z,15.03
2023-02-11T19:09:13.566Z,14.30
2023-02-11T19:11:49.765Z,16.02
2023-02-11T19:14:24.542Z,15.83
2023-02-11T19:16:58.964Z,17.20
2023-02-11T19:19:33.094Z,13.98
2023-02-11T19:22:09.202Z,19.12
2023-02-11T19:24:39.865Z,16.80
2023-02-11T19:27:12.543Z,15.93
2023-02-11T19:29:44.228Z,17.35
2023-02-11T19:32:16.365Z,16.52
2023-02-11T19:34:47.942Z,19.05
2023-02-11T19:37:19.899Z,16.48
2023-02-11T19:39:51.645Z,16.17
2023-02-11T19:42:27.352Z,15.55
2023-02-11T19:45:00.095Z,14.10
2023-02-11T19:47:32.927Z,17.45
2023-02-11T19:50:08.482Z,18.35
2023-02-11T19:52:41.597Z,16.82
2023-02-11T19:55:13.204Z,16.52
2023-02-11T19:57:45.574Z,17.48
2023-02-11T20:00:20.651Z,17.12
2023-02-11T20:02:54.310Z,14.95
2023-02-11T20:05:26.213Z,17.80
2023-02-11T20:07:59.681Z,17.15
2023-02-11T20:10:31.515Z,14.58
2023-02-11T20:13:07.447Z,15.48
2023-02-11T20:15:40.526Z,17.67
2023-02-11T20:18:15.003Z,16.73
2023-02-11T20:20:47.241Z,16.27
2023-02-11T20:23:19.759Z,15.72
2023-02-11T20:25:52.989Z,15.32
2023-02-11T20:28:25.699Z,13.83
2023-02-11T20:31:00.833Z,15.05
2023-02-11T20:33:33.275Z,16.12
2023-02-11T20:36:09.826Z,13.78
2023-02-11T20:38:43.549Z,14.98
2023-02-11T20:41:19.628Z,15.70
2023-02-11T20:43:53.813Z,14.33
2023-02-11T20:46:31.577Z,15.05
2023-02-11T20:49:03.818Z,13.00
2023-02-11T20:51:38.415Z,13.58
2023-02-11T20:54:15.749Z,12.75
2023-02-11T20:56:51.933Z,12.33
2023-02-11T20:59:25.037Z,10.70
2023-02-11T21:01:58.885Z,12.40
2023-02-11T21:04:33.309Z,11.90
2023-02-11T21:07:05.172Z,12.40
2023-02-11T21:09:36.698Z,10.85
2023-02-11T21:12:11.202Z,11.75
2023-02-11T21:14:43.934Z,15.18
2023-02-11T21:17:16.716Z,13.75
2023-02-11T21:19:48.079Z,14.33
2023-02-11T21:22:19.773Z,13.00
2023-02-11T21:24:51.550Z,16.48
2023-02-11T21:27:23.953Z,17.67
2023-02-11T21:29:55.542Z,17.02
2023-02-11T21:32:27.077Z,15.90
2023-02-11T21:35:00.625Z,14.95
2023-02-11T21:37:31.954Z,13.40
2023-02-11T21:40:03.458Z,82.02
2023-02-11T21:42:36.131Z,17.82
2023-02-11T21:45:08.784Z,15.28
2023-02-11T21:47:46.497Z,14.93
2023-02-11T21:50:18.264Z,12.00
2023-02-11T21:52:49.734Z,13.53
2023-02-11T21:55:21.530Z,11.55
2023-02-11T21:57:53.111Z,12.00
2023-02-11T22:00:25.001Z,13.78
2023-02-11T22:02:56.559Z,13.35
2023-02-11T22:05:28.114Z,14.45
2023-02-11T22:08:01.652Z,13.40
2023-02-11T22:10:33.079Z,11.83
2023-02-11T22:13:04.465Z,14.70
2023-02-11T22:15:36.003Z,13.72
2023-02-11T22:18:08.429Z,11.88
2023-02-11T22:20:39.909Z,15.13
2023-02-11T22:23:11.266Z,12.58
2023-02-11T22:25:42.740Z,14.23
2023-02-11T22:28:14.197Z,14.68
2023-02-11T22:30:45.647Z,14.45
2023-02-11T22:33:17.026Z,18.67
2023-02-11T22:35:48.499Z,15.53
2023-02-11T22:38:20.001Z,16.17
2023-02-11T22:40:51.784Z,15.68
2023-02-11T22:43:23.269Z,15.32
2023-02-11T22:45:56.862Z,16.90
2023-02-11T22:48:28.486Z,15.85
2023-02-11T22:51:05.577Z,13.93
2023-02-11T22:53:37.521Z,13.62
2023-02-11T22:56:14.989Z,15.43
2023-02-11T22:58:44.993Z,13.13
2023-02-11T23:01:16.765Z,13.30
2023-02-11T23:03:48.131Z,16.23
2023-02-11T23:06:19.930Z,16.62
2023-02-11T23:08:51.375Z,16.80
2023-02-11T23:11:24.849Z,14.60
2023-02-11T23:13:57.187Z,15.18
2023-02-11T23:16:31.494Z,16.07
2023-02-11T23:19:05.263Z,16.85
2023-02-11T23:21:39.378Z,15.68
2023-02-11T23:24:14.975Z,16.87
2023-02-11T23:26:46.668Z,15.20
2023-02-11T23:29:18.150Z,14.68
2023-02-11T23:31:50.012Z,13.80
2023-02-11T23:34:23.253Z,14.28
2023-02-11T23:36:56.017Z,13.30
2023-02-11T23:39:27.558Z,14.13
2023-02-11T23:41:59.551Z,12.78
2023-02-11T23:44:31.032Z,12.10
2023-02-11T23:47:02.563Z,14.55
2023-02-11T23:49:34.404Z,14.00
2023-02-11T23:52:05.838Z,14.50
2023-02-11T23:54:37.339Z,14.25
2023-02-11T23:57:08.862Z,16.42
2023-02-11T23:59:42.417Z,12.90
